createdAt,value
2022-10-07T06:15:08.422Z,100.00
2022-10-07T06:25:08.506Z,100.00
2022-10-07T06:35:08.495Z,100.00
2022-10-07T06:45:08.457Z,100.00
2022-10-07T06:55:08.439Z,100.00
2022-10-07T07:05:08.764Z,100.00
2022-10-07T07:15:08.596Z,100.00
2022-10-07T07:25:08.587Z,100.00
2022-10-07T07:35:08.655Z,100.00
2022-10-07T07:45:08.596Z,100.00
2022-10-07T07:55:08.625Z,100.00
2022-10-07T08:05:08.665Z,100.00
2022-10-07T08:15:08.547Z,100.00
2022-10-07T08:25:08.677Z,97.34
2022-10-07T08:35:08.844Z,95.94
2022-10-07T08:45:08.814Z,91.14
2022-10-07T08:55:08.844Z,87.86
2022-10-07T09:05:09.035Z,81.94
2022-10-07T09:15:08.817Z,81.75
2022-10-07T09:25:11.281Z,80.30
2022-10-07T09:35:08.715Z,79.55
2022-10-07T09:45:09.910Z,79.07
2022-10-07T09:55:08.915Z,75.78
2022-10-07T10:05:08.660Z,77.13
2022-10-07T10:15:08.676Z,74.18
2022-10-07T10:25:08.975Z,71.97
2022-10-07T10:35:08.724Z,69.67
2022-10-07T10:45:08.778Z,68.74
2022-10-07T10:55:08.834Z,68.79
2022-10-07T11:05:08.794Z,68.48
2022-10-07T11:15:08.993Z,68.33
2022-10-07T11:25:08.782Z,68.26
2022-10-07T11:35:08.883Z,67.30
2022-10-07T11:45:08.851Z,66.79
2022-10-07T11:55:08.944Z,63.66
2022-10-07T12:05:09.113Z,64.47
2022-10-07T12:15:08.856Z,62.60
2022-10-07T12:25:11.147Z,61.46
2022-10-07T12:35:09.083Z,62.72
2022-10-07T12:45:08.925Z,61.69
2022-10-07T12:55:09.023Z,61.72
2022-10-07T13:05:08.988Z,62.21
2022-10-07T13:15:08.911Z,62.70
2022-10-07T13:25:09.226Z,62.00
2022-10-07T13:35:08.927Z,61.74
2022-10-07T13:45:08.925Z,61.16
2022-10-07T13:55:09.005Z,60.27
2022-10-07T14:05:09.120Z,59.85
2022-10-07T14:15:09.062Z,58.78
2022-10-07T14:25:09.161Z,59.38
2022-10-07T14:35:09.053Z,59.96
2022-10-07T14:45:09.190Z,59.55
2022-10-07T14:55:09.152Z,59.32
2022-10-07T15:05:09.246Z,59.25
2022-10-07T15:15:09.225Z,60.23
2022-10-07T15:25:09.155Z,60.92
2022-10-07T15:35:09.287Z,62.40
2022-10-07T15:45:09.192Z,63.57
2022-10-07T15:55:09.253Z,63.77
2022-10-07T16:05:09.211Z,65.90
2022-10-07T16:15:09.417Z,68.23
2022-10-07T16:25:09.236Z,72.19
2022-10-07T16:35:09.295Z,76.73
2022-10-07T16:45:09.364Z,84.41
2022-10-07T16:55:09.315Z,93.15
2022-10-07T17:05:09.348Z,100.00
2022-10-07T17:15:09.235Z,100.00
2022-10-07T17:25:09.342Z,100.00
2022-10-07T17:35:09.407Z,100.00
2022-10-07T17:45:09.356Z,100.00
2022-10-07T17:55:09.304Z,100.00
2022-10-07T18:05:09.443Z,100.00
2022-10-07T18:15:09.351Z,100.00
2022-10-07T18:25:09.342Z,100.00
2022-10-07T18:35:09.322Z,100.00
2022-10-07T18:45:09.334Z,100.00
2022-10-07T18:55:09.494Z,100.00
2022-10-07T19:05:09.941Z,100.00
2022-10-07T19:15:09.771Z,100.00
